createdAt,value
2018-03-18T00:02:07.782Z,87.20
2018-03-18T00:04:36.440Z,87.10
2018-03-18T00:09:40.159Z,84.30
2018-03-18T00:12:08.405Z,84.90
2018-03-18T00:14:36.781Z,84.50
2018-03-18T00:17:05.594Z,83.70
2018-03-18T00:22:08.607Z,83.30
2018-03-18T00:24:36.968Z,83.90
2018-03-18T00:27:05.157Z,85.30
2018-03-18T00:29:33.402Z,85.00
2018-03-18T00:32:01.596Z,85.20
2018-03-18T00:34:29.912Z,84.10
2018-03-18T00:36:58.181Z,85.40
2018-03-18T00:39:26.401Z,87.30
2018-03-18T00:41:54.650Z,87.70
2018-03-18T00:44:24.021Z,86.30
2018-03-18T00:46:53.291Z,86.30
2018-03-18T00:49:22.037Z,87.90
2018-03-18T00:52:01.241Z,88.40
2018-03-18T00:54:29.773Z,88.50
2018-03-18T00:56:58.169Z,88.40
2018-03-18T00:59:26.444Z,86.60
2018-03-18T01:01:55.428Z,88.10
2018-03-18T01:04:24.408Z,88.80
2018-03-18T01:06:54.024Z,88.20
2018-03-18T01:09:22.255Z,87.60
2018-03-18T01:11:50.551Z,89.60
2018-03-18T01:14:18.753Z,87.80
2018-03-18T01:16:46.997Z,86.90
2018-03-18T01:19:15.325Z,90.20
2018-03-18T01:21:44.405Z,90.80
2018-03-18T01:24:12.751Z,90.80
2018-03-18T01:26:40.938Z,90.60
2018-03-18T01:29:09.178Z,90.80
2018-03-18T01:31:37.416Z,90.60
2018-03-18T01:34:05.596Z,90.00
2018-03-18T01:36:33.840Z,90.10
2018-03-18T01:39:02.082Z,90.60
2018-03-18T01:41:30.285Z,90.30
2018-03-18T01:43:58.532Z,90.30
2018-03-18T01:46:26.733Z,90.20
2018-03-18T01:48:54.978Z,90.00
2018-03-18T01:51:23.458Z,90.00
2018-03-18T01:53:51.662Z,89.80
2018-03-18T01:56:19.913Z,89.50
2018-03-18T01:58:48.179Z,90.40
2018-03-18T02:01:16.588Z,89.00
2018-03-18T02:03:44.772Z,87.50
2018-03-18T02:06:13.072Z,86.80
2018-03-18T02:08:41.354Z,85.70
2018-03-18T02:11:10.137Z,86.10
2018-03-18T02:13:38.360Z,87.70
2018-03-18T02:16:06.566Z,88.90
2018-03-18T02:18:34.777Z,88.50
2018-03-18T02:21:03.796Z,82.70
2018-03-18T02:23:32.029Z,82.60
2018-03-18T02:26:00.249Z,87.10
2018-03-18T02:28:28.600Z,86.30
2018-03-18T02:30:56.789Z,86.40
2018-03-18T02:33:25.854Z,84.10
2018-03-18T02:35:54.189Z,84.10
2018-03-18T02:38:22.495Z,84.20
2018-03-18T02:40:50.750Z,84.80
2018-03-18T02:43:19.106Z,83.70
2018-03-18T02:45:47.273Z,84.10
2018-03-18T02:48:16.254Z,84.60
2018-03-18T02:50:45.290Z,83.90
2018-03-18T02:53:13.548Z,83.90
2018-03-18T02:55:41.761Z,81.40
2018-03-18T02:58:10.005Z,81.90
2018-03-18T03:00:38.236Z,82.40
2018-03-18T03:03:06.472Z,84.20
2018-03-18T03:05:34.717Z,82.80
2018-03-18T03:08:02.929Z,81.60
2018-03-18T03:10:31.177Z,83.60
2018-03-18T03:12:59.468Z,82.00
2018-03-18T03:15:27.674Z,80.60
2018-03-18T03:17:55.890Z,82.40
2018-03-18T03:20:24.204Z,84.50
2018-03-18T03:22:52.403Z,84.30
2018-03-18T03:25:20.664Z,83.10
2018-03-18T03:27:48.958Z,83.10
2018-03-18T03:30:17.221Z,82.50
2018-03-18T03:32:45.435Z,84.60
2018-03-18T03:35:13.732Z,83.00
2018-03-18T03:37:41.928Z,83.80
2018-03-18T03:40:10.365Z,83.60
2018-03-18T03:42:39.413Z,83.40
2018-03-18T03:45:07.641Z,83.40
2018-03-18T03:47:36.616Z,84.20
2018-03-18T03:50:04.966Z,84.20
2018-03-18T03:52:33.171Z,82.00
2018-03-18T03:55:01.379Z,84.20
2018-03-18T03:57:29.656Z,83.50
2018-03-18T03:59:57.885Z,81.90
2018-03-18T04:02:26.102Z,83.30
2018-03-18T04:04:54.357Z,82.40
2018-03-18T04:07:23.353Z,83.20
2018-03-18T04:09:52.335Z,81.10
2018-03-18T04:12:20.557Z,81.00
2018-03-18T04:14:48.859Z,82.80
2018-03-18T04:17:17.150Z,82.60
2018-03-18T04:19:45.468Z,82.80
2018-03-18T04:22:13.787Z,81.70
2018-03-18T04:24:42.081Z,83.20
2018-03-18T04:27:10.390Z,83.20
2018-03-18T04:29:39.370Z,82.10
2018-03-18T04:32:08.461Z,84.10
2018-03-18T04:34:37.470Z,83.90
2018-03-18T04:37:06.556Z,83.60
2018-03-18T04:39:35.573Z,82.00
2018-03-18T04:42:04.919Z,80.80
2018-03-18T04:44:33.118Z,80.80
2018-03-18T04:47:01.322Z,83.60
2018-03-18T04:49:29.558Z,85.20
2018-03-18T04:51:57.847Z,82.90
2018-03-18T04:54:26.046Z,84.10
2018-03-18T04:56:54.312Z,84.60
2018-03-18T04:59:22.554Z,83.10
2018-03-18T05:01:50.789Z,82.40
2018-03-18T05:04:19.860Z,83.40
2018-03-18T05:06:48.062Z,83.40
2018-03-18T05:09:16.289Z,83.30
2018-03-18T05:11:44.542Z,84.90
2018-03-18T05:14:14.033Z,84.30
2018-03-18T05:16:42.251Z,86.00
2018-03-18T05:19:11.252Z,83.50
2018-03-18T05:21:40.355Z,84.90
2018-03-18T05:24:08.546Z,84.90
2018-03-18T05:26:36.909Z,86.20
2018-03-18T05:29:05.906Z,84.80
2018-03-18T05:31:34.931Z,85.50
2018-03-18T05:34:03.195Z,85.60
2018-03-18T05:36:31.409Z,86.60
2018-03-18T05:38:59.604Z,87.30
2018-03-18T05:41:27.908Z,86.30
2018-03-18T05:43:56.180Z,85.20
2018-03-18T05:46:24.432Z,85.70
2018-03-18T05:48:52.824Z,85.40
2018-03-18T05:51:21.050Z,86.30
2018-03-18T05:53:49.825Z,83.70
2018-03-18T05:56:19.046Z,83.70
2018-03-18T05:58:47.445Z,82.60
2018-03-18T06:01:15.899Z,83.30
2018-03-18T06:03:45.653Z,83.30
2018-03-18T06:06:13.841Z,83.20
2018-03-18T06:08:42.815Z,82.00
2018-03-18T06:11:11.201Z,82.00
2018-03-18T06:13:39.424Z,83.20
2018-03-18T06:16:07.986Z,81.60
2018-03-18T06:18:37.825Z,83.80
2018-03-18T06:21:06.208Z,83.80
2018-03-18T06:23:34.491Z,81.90
2018-03-18T06:26:02.736Z,80.10
2018-03-18T06:28:30.947Z,81.40
2018-03-18T06:30:59.197Z,80.20
2018-03-18T06:33:28.397Z,82.50
2018-03-18T06:35:56.718Z,82.50
2018-03-18T06:38:25.690Z,81.40
2018-03-18T06:40:53.962Z,81.40
2018-03-18T06:43:22.265Z,79.20
2018-03-18T06:45:50.509Z,78.10
2018-03-18T06:48:18.772Z,79.40
2018-03-18T06:50:47.022Z,79.20
2018-03-18T06:53:16.010Z,79.60
2018-03-18T06:55:44.278Z,79.50
2018-03-18T06:58:13.246Z,78.70
2018-03-18T07:00:41.490Z,78.70
2018-03-18T07:03:09.869Z,78.00
2018-03-18T07:05:38.162Z,78.70
2018-03-18T07:08:06.425Z,76.20
2018-03-18T07:10:35.349Z,76.30
2018-03-18T07:13:03.691Z,76.30
2018-03-18T07:15:31.902Z,74.40
2018-03-18T07:18:00.192Z,73.20
2018-03-18T07:20:28.400Z,75.40
2018-03-18T07:22:56.739Z,74.40
2018-03-18T07:25:26.925Z,75.20
2018-03-18T07:27:55.178Z,75.10
2018-03-18T07:30:23.563Z,72.30
2018-03-18T07:32:51.838Z,72.50
2018-03-18T07:35:21.063Z,73.30
2018-03-18T07:37:49.992Z,71.50
2018-03-18T07:40:21.534Z,72.90
2018-03-18T07:42:49.768Z,72.90
2018-03-18T07:45:18.013Z,72.00
2018-03-18T07:47:46.402Z,72.90
2018-03-18T07:50:15.133Z,72.40
2018-03-18T07:52:43.364Z,71.70
2018-03-18T07:55:11.603Z,70.70
2018-03-18T07:57:40.584Z,70.00
2018-03-18T08:00:08.962Z,69.70
2018-03-18T08:02:37.198Z,70.10
2018-03-18T08:05:05.428Z,73.80
2018-03-18T08:07:34.429Z,71.80
2018-03-18T08:10:02.688Z,71.70
2018-03-18T08:12:31.681Z,68.50
2018-03-18T08:14:59.869Z,68.60
2018-03-18T08:17:28.892Z,70.20
2018-03-18T08:19:57.158Z,70.60
2018-03-18T08:22:25.441Z,70.40
2018-03-18T08:24:53.921Z,71.20
2018-03-18T08:27:22.199Z,69.60
2018-03-18T08:32:21.440Z,67.60
2018-03-18T08:34:49.632Z,66.70
2018-03-18T08:37:17.960Z,66.80
2018-03-18T08:39:47.252Z,66.50
2018-03-18T08:42:27.987Z,68.20
2018-03-18T08:44:56.300Z,68.20
2018-03-18T08:47:25.316Z,65.50
2018-03-18T08:49:53.524Z,65.50
2018-03-18T08:52:21.890Z,66.50
2018-03-18T08:54:50.891Z,68.30
2018-03-18T08:57:19.319Z,68.80
2018-03-18T08:59:48.452Z,64.40
2018-03-18T09:02:16.847Z,64.30
2018-03-18T09:04:45.162Z,67.30
2018-03-18T09:07:13.408Z,68.50
2018-03-18T09:09:41.613Z,64.90
2018-03-18T09:12:10.593Z,66.30
2018-03-18T09:14:38.960Z,66.30
2018-03-18T09:17:07.615Z,68.40
2018-03-18T09:19:35.918Z,65.30
2018-03-18T09:22:04.348Z,63.50
2018-03-18T09:24:32.703Z,67.20
2018-03-18T09:27:01.672Z,61.70
2018-03-18T09:29:29.973Z,61.70
2018-03-18T09:31:58.976Z,64.90
2018-03-18T09:34:27.955Z,65.80
2018-03-18T09:36:56.253Z,65.70
2018-03-18T09:39:25.211Z,67.50
2018-03-18T09:41:53.428Z,67.50
2018-03-18T09:44:21.710Z,61.10
2018-03-18T09:46:49.917Z,64.60
2018-03-18T09:49:18.153Z,62.10
2018-03-18T09:51:46.656Z,63.10
2018-03-18T09:54:14.905Z,66.50
2018-03-18T09:56:43.204Z,63.40
2018-03-18T09:59:11.450Z,59.00
2018-03-18T10:01:40.445Z,62.10
2018-03-18T10:04:08.651Z,62.10
2018-03-18T10:06:36.950Z,63.90
2018-03-18T10:09:05.149Z,59.70
2018-03-18T10:11:33.357Z,57.90
2018-03-18T10:14:01.644Z,58.70
2018-03-18T10:16:30.554Z,57.90
2018-03-18T10:18:58.791Z,57.90
2018-03-18T10:21:27.021Z,61.30
2018-03-18T10:23:55.224Z,58.10
2018-03-18T10:26:24.197Z,58.70
2018-03-18T10:28:52.488Z,58.70
2018-03-18T10:31:20.645Z,59.40
2018-03-18T10:33:48.858Z,57.30
2018-03-18T10:36:17.113Z,56.80
2018-03-18T10:38:45.325Z,56.50
2018-03-18T10:41:13.520Z,58.50
2018-03-18T10:43:41.745Z,56.70
2018-03-18T10:46:10.717Z,60.30
2018-03-18T10:48:38.979Z,60.30
2018-03-18T10:51:07.229Z,61.20
2018-03-18T10:53:35.709Z,57.50
2018-03-18T10:56:04.080Z,55.00
2018-03-18T10:58:32.607Z,59.40
2018-03-18T11:01:06.424Z,57.70
2018-03-18T11:03:34.726Z,58.60
2018-03-18T11:06:03.697Z,59.60
2018-03-18T11:08:32.033Z,59.50
2018-03-18T11:11:00.269Z,58.90
2018-03-18T11:13:29.245Z,56.60
2018-03-18T11:15:57.469Z,56.50
2018-03-18T11:18:26.548Z,58.70
2018-03-18T11:20:54.772Z,54.60
2018-03-18T11:23:22.988Z,56.70
2018-03-18T11:25:53.533Z,60.20
2018-03-18T11:28:22.649Z,57.80
2018-03-18T11:30:50.960Z,57.80
2018-03-18T11:33:19.184Z,56.00
2018-03-18T11:35:47.397Z,54.10
2018-03-18T11:38:15.604Z,51.60
2018-03-18T11:40:44.597Z,54.70
2018-03-18T11:43:12.789Z,57.40
2018-03-18T11:45:41.790Z,57.30
2018-03-18T11:48:10.016Z,57.30
2018-03-18T11:50:38.270Z,57.10
2018-03-18T11:53:06.517Z,55.90
2018-03-18T11:55:34.759Z,56.80
2018-03-18T11:58:02.986Z,56.40
2018-03-18T12:00:31.280Z,55.60
2018-03-18T12:02:59.605Z,57.60
2018-03-18T12:05:28.592Z,54.70
2018-03-18T12:07:56.895Z,54.60
2018-03-18T12:10:25.227Z,53.80
2018-03-18T12:12:53.453Z,54.70
2018-03-18T12:15:21.752Z,55.80
2018-03-18T12:17:50.731Z,55.50
2018-03-18T12:20:19.061Z,55.50
2018-03-18T12:22:47.360Z,57.20
2018-03-18T12:25:16.437Z,55.20
2018-03-18T12:27:44.881Z,55.00
2018-03-18T12:30:13.200Z,53.70
2018-03-18T12:32:41.499Z,55.90
2018-03-18T12:35:09.841Z,53.90
2018-03-18T12:37:38.067Z,56.50
2018-03-18T12:40:20.473Z,54.60
2018-03-18T12:43:00.669Z,49.60
2018-03-18T12:45:28.916Z,50.20
2018-03-18T12:47:57.097Z,51.50
2018-03-18T12:50:25.361Z,50.00
2018-03-18T12:52:53.601Z,46.30
2018-03-18T12:55:22.801Z,50.30
2018-03-18T12:57:51.779Z,49.90
2018-03-18T13:00:20.156Z,50.00
2018-03-18T13:02:48.374Z,48.20
2018-03-18T13:05:16.608Z,52.50
2018-03-18T13:07:44.846Z,54.10
2018-03-18T13:10:13.091Z,55.70
2018-03-18T13:12:41.255Z,53.50
2018-03-18T13:15:10.244Z,53.10
2018-03-18T13:17:39.276Z,53.10
2018-03-18T13:20:07.482Z,53.10
2018-03-18T13:22:35.713Z,52.80
2018-03-18T13:25:03.936Z,57.70
2018-03-18T13:27:32.161Z,56.50
2018-03-18T13:30:00.410Z,56.70
2018-03-18T13:32:29.554Z,59.80
2018-03-18T13:34:57.801Z,59.80
2018-03-18T13:37:26.054Z,58.40
2018-03-18T13:39:55.065Z,57.10
2018-03-18T13:42:24.057Z,57.00
2018-03-18T13:44:52.409Z,58.10
2018-03-18T13:47:20.624Z,59.10
2018-03-18T13:49:48.835Z,58.80
2018-03-18T13:52:17.245Z,62.10
2018-03-18T13:54:45.442Z,62.10
2018-03-18T13:57:14.424Z,58.10
2018-03-18T13:59:42.612Z,58.10
2018-03-18T14:02:10.858Z,61.00
2018-03-18T14:04:39.153Z,58.90
2018-03-18T14:07:08.176Z,58.60
2018-03-18T14:09:36.475Z,58.70
2018-03-18T14:12:04.754Z,60.40
2018-03-18T14:14:33.382Z,63.80
2018-03-18T14:17:02.344Z,58.70
2018-03-18T14:19:30.608Z,58.70
2018-03-18T14:21:58.907Z,61.50
2018-03-18T14:24:27.160Z,59.10
2018-03-18T14:26:55.360Z,60.50
2018-03-18T14:29:23.733Z,60.60
2018-03-18T14:31:51.923Z,57.80
2018-03-18T14:34:20.117Z,58.60
2018-03-18T14:36:48.374Z,57.80
2018-03-18T14:39:16.563Z,59.40
2018-03-18T14:41:45.579Z,63.80
2018-03-18T14:44:13.816Z,63.50
2018-03-18T14:46:42.016Z,60.80
2018-03-18T14:49:10.281Z,58.60
2018-03-18T14:51:40.509Z,60.00
2018-03-18T14:54:09.508Z,61.70
2018-03-18T14:56:38.517Z,63.60
2018-03-18T14:59:06.820Z,63.10
2018-03-18T15:01:35.074Z,62.80
2018-03-18T15:04:03.284Z,64.30
2018-03-18T15:06:31.566Z,62.50
2018-03-18T15:08:59.929Z,61.50
2018-03-18T15:11:28.153Z,60.90
2018-03-18T15:13:56.475Z,62.80
2018-03-18T15:16:24.689Z,64.00
2018-03-18T15:18:53.792Z,62.00
2018-03-18T15:21:22.839Z,65.40
2018-03-18T15:23:51.028Z,65.30
2018-03-18T15:26:19.268Z,61.10
2018-03-18T15:28:47.521Z,64.30
2018-03-18T15:31:15.818Z,62.80
2018-03-18T15:33:44.066Z,60.00
2018-03-18T15:36:13.124Z,63.60
2018-03-18T15:38:41.333Z,63.70
2018-03-18T15:41:10.390Z,63.70
2018-03-18T15:43:38.660Z,63.70
2018-03-18T15:46:06.949Z,63.20
2018-03-18T15:48:35.179Z,64.20
2018-03-18T15:51:04.158Z,64.80
2018-03-18T15:53:32.393Z,64.80
2018-03-18T15:56:00.602Z,64.90
2018-03-18T15:58:29.525Z,64.20
2018-03-18T16:00:57.725Z,66.40
2018-03-18T16:03:27.856Z,62.50
2018-03-18T16:05:56.405Z,62.40
2018-03-18T16:10:50.389Z,67.70
2018-03-18T16:13:18.689Z,65.60
2018-03-18T16:15:47.070Z,66.30
2018-03-18T16:18:15.264Z,66.70
2018-03-18T16:20:43.838Z,64.30
2018-03-18T16:23:12.054Z,67.20
2018-03-18T16:25:41.743Z,66.90
2018-03-18T16:28:09.988Z,66.90
2018-03-18T16:30:49.873Z,65.80
2018-03-18T16:33:18.353Z,65.10
2018-03-18T16:35:46.558Z,67.90
2018-03-18T16:38:14.877Z,66.50
2018-03-18T16:40:43.211Z,66.30
2018-03-18T16:43:12.202Z,69.00
2018-03-18T16:45:41.256Z,68.30
2018-03-18T16:48:09.492Z,68.30
2018-03-18T16:50:37.805Z,68.30
2018-03-18T16:53:06.818Z,70.00
2018-03-18T16:55:36.460Z,70.00
2018-03-18T16:58:04.671Z,69.30
2018-03-18T17:00:32.948Z,69.80
2018-03-18T17:03:01.220Z,69.90
2018-03-18T17:05:29.632Z,71.90
2018-03-18T17:07:57.891Z,72.20
2018-03-18T17:10:26.215Z,73.30
2018-03-18T17:12:54.695Z,72.30
2018-03-18T17:15:23.817Z,74.90
2018-03-18T17:17:52.460Z,74.90
2018-03-18T17:20:21.973Z,74.10
2018-03-18T17:22:50.401Z,73.70
2018-03-18T17:25:18.677Z,74.10
2018-03-18T17:27:46.899Z,74.90
2018-03-18T17:30:15.897Z,72.30
2018-03-18T17:32:44.966Z,71.20
2018-03-18T17:35:14.138Z,71.00
2018-03-18T17:37:42.345Z,72.00
2018-03-18T17:40:10.597Z,71.20
2018-03-18T17:42:38.789Z,72.60
2018-03-18T17:45:21.245Z,71.50
2018-03-18T17:48:01.836Z,73.40
2018-03-18T17:50:37.264Z,74.10
2018-03-18T17:53:17.262Z,72.70
2018-03-18T17:55:45.480Z,71.50
2018-03-18T17:58:13.702Z,72.10
2018-03-18T18:00:41.968Z,71.10
2018-03-18T18:03:10.869Z,70.60
2018-03-18T18:05:39.054Z,71.70
2018-03-18T18:08:07.408Z,73.80
2018-03-18T18:10:36.306Z,73.90
2018-03-18T18:13:04.847Z,72.30
2018-03-18T18:15:33.867Z,71.90
2018-03-18T18:18:02.113Z,71.90
2018-03-18T18:20:31.107Z,73.30
2018-03-18T18:22:59.369Z,73.20
2018-03-18T18:25:28.839Z,72.20
2018-03-18T18:27:57.249Z,70.40
2018-03-18T18:30:26.051Z,70.90
2018-03-18T18:32:54.336Z,69.50
2018-03-18T18:35:23.325Z,70.90
2018-03-18T18:37:51.783Z,70.90
2018-03-18T18:40:20.159Z,71.40
2018-03-18T18:42:48.372Z,70.90
2018-03-18T18:45:17.360Z,70.00
2018-03-18T18:47:46.889Z,71.40
2018-03-18T18:50:15.257Z,71.40
2018-03-18T18:52:44.276Z,69.10
2018-03-18T18:55:12.536Z,69.10
2018-03-18T18:57:40.826Z,69.20
2018-03-18T19:00:09.474Z,70.10
2018-03-18T19:02:37.689Z,68.00
2018-03-18T19:05:05.916Z,68.50
2018-03-18T19:07:34.123Z,69.20
2018-03-18T19:10:03.608Z,70.20
2018-03-18T19:12:31.798Z,71.10
2018-03-18T19:14:59.998Z,71.60
2018-03-18T19:17:28.286Z,70.70
2018-03-18T19:19:56.721Z,72.50
2018-03-18T19:22:25.861Z,68.70
2018-03-18T19:24:54.522Z,68.60
2018-03-18T19:27:22.784Z,71.20
2018-03-18T19:29:51.025Z,71.40
2018-03-18T19:32:19.337Z,69.90
2018-03-18T19:34:47.547Z,71.30
2018-03-18T19:37:15.862Z,69.90
2018-03-18T19:39:44.809Z,69.30
2018-03-18T19:42:13.045Z,69.60
2018-03-18T19:44:41.287Z,70.30
2018-03-18T19:47:09.721Z,70.70
2018-03-18T19:49:37.989Z,69.50
2018-03-18T19:52:06.184Z,68.40
2018-03-18T19:54:34.545Z,69.60
2018-03-18T19:57:02.839Z,70.10
2018-03-18T19:59:31.086Z,69.10
2018-03-18T20:02:01.414Z,68.80
2018-03-18T20:04:30.362Z,67.90
2018-03-18T20:06:59.030Z,67.90
2018-03-18T20:09:28.107Z,69.10
2018-03-18T20:11:56.325Z,69.10
2018-03-18T20:14:24.722Z,69.00
2018-03-18T20:16:52.934Z,69.50
2018-03-18T20:19:21.209Z,68.80
2018-03-18T20:21:49.489Z,67.50
2018-03-18T20:24:17.828Z,68.90
2018-03-18T20:26:46.036Z,69.40
2018-03-18T20:29:14.342Z,69.80
2018-03-18T20:31:42.693Z,70.50
2018-03-18T20:34:11.186Z,69.30
2018-03-18T20:36:40.317Z,68.50
2018-03-18T20:39:08.682Z,68.50
2018-03-18T20:41:37.027Z,69.30
2018-03-18T20:44:05.663Z,69.10
2018-03-18T20:46:34.029Z,69.40
2018-03-18T20:49:02.237Z,69.20
2018-03-18T20:51:31.293Z,70.90
2018-03-18T20:53:59.669Z,70.90
2018-03-18T20:56:28.700Z,68.40
2018-03-18T20:58:57.829Z,69.30
2018-03-18T21:01:26.964Z,68.60
2018-03-18T21:03:55.305Z,68.60
2018-03-18T21:06:23.556Z,68.00
2018-03-18T21:08:52.549Z,69.60
2018-03-18T21:11:21.549Z,69.80
2018-03-18T21:13:50.527Z,70.20
2018-03-18T21:16:18.756Z,70.20
2018-03-18T21:18:46.956Z,70.20
2018-03-18T21:21:15.174Z,68.70
2018-03-18T21:23:43.538Z,70.70
2018-03-18T21:26:12.500Z,69.80
2018-03-18T21:28:40.751Z,69.80
2018-03-18T21:31:08.973Z,69.50
2018-03-18T21:33:37.835Z,68.60
2018-03-18T21:36:06.845Z,68.60
2018-03-18T21:38:35.269Z,68.70
2018-03-18T21:41:03.541Z,69.30
2018-03-18T21:43:31.754Z,69.80
2018-03-18T21:46:00.329Z,71.10
2018-03-18T21:48:28.715Z,68.30
2018-03-18T21:50:56.998Z,70.40
2018-03-18T21:53:25.314Z,70.30
2018-03-18T21:55:54.310Z,68.70
2018-03-18T21:58:23.333Z,70.50
2018-03-18T22:00:51.582Z,70.40
2018-03-18T22:03:20.591Z,69.00
2018-03-18T22:05:48.844Z,68.90
2018-03-18T22:08:18.041Z,68.40
2018-03-18T22:10:46.288Z,68.40
2018-03-18T22:13:14.642Z,70.60
2018-03-18T22:15:43.103Z,70.70
2018-03-18T22:18:12.065Z,68.70
2018-03-18T22:20:41.248Z,68.40
2018-03-18T22:23:09.515Z,68.40
2018-03-18T22:25:37.740Z,71.20
2018-03-18T22:28:05.937Z,69.20
2018-03-18T22:30:34.183Z,68.60
2018-03-18T22:33:03.154Z,68.40
2018-03-18T22:35:31.377Z,68.40
2018-03-18T22:37:59.725Z,68.70
2018-03-18T22:40:28.112Z,69.50
2018-03-18T22:42:57.077Z,71.60
2018-03-18T22:45:25.347Z,71.50
2018-03-18T22:47:53.542Z,70.60
2018-03-18T22:50:22.551Z,68.90
2018-03-18T22:52:51.568Z,68.70
2018-03-18T22:55:19.853Z,68.70
2018-03-18T22:57:48.069Z,69.20
2018-03-18T23:00:18.255Z,68.90
2018-03-18T23:02:47.241Z,70.10
2018-03-18T23:05:15.449Z,70.10
2018-03-18T23:07:43.693Z,69.70
2018-03-18T23:10:11.899Z,69.20
2018-03-18T23:12:40.102Z,68.50
2018-03-18T23:15:09.928Z,69.90
2018-03-18T23:17:38.168Z,69.90
2018-03-18T23:20:06.389Z,70.50
2018-03-18T23:22:34.657Z,69.50
2018-03-18T23:25:02.889Z,69.00
2018-03-18T23:27:31.341Z,70.00
2018-03-18T23:29:59.591Z,69.10
2018-03-18T23:32:28.125Z,68.30
2018-03-18T23:34:56.361Z,68.10
2018-03-18T23:37:25.468Z,68.00
2018-03-18T23:39:53.769Z,67.90
2018-03-18T23:42:22.007Z,67.80
2018-03-18T23:44:51.088Z,69.10
2018-03-18T23:47:20.096Z,68.20
2018-03-18T23:49:49.138Z,68.00
2018-03-18T23:52:17.449Z,68.00
2018-03-18T23:54:45.701Z,67.70
2018-03-18T23:57:13.923Z,68.60
2018-03-18T23:59:42.962Z,69.90
